Time;durP1;ratioP1;P1;durP2;ratioP2;P2;SDS_P1;SDS_P2;PMS_P1;PMS_P2;Temp;Humidity;BMP_temperature;BMP_pressure;BME280_temperature;BME280_humidity;BME280_pressure;Samples;Min_cycle;Max_cycle;Signal;HPM_P1;HPM_P2
2023/03/21 00:00:04;;;;;;;39.35;29.02;;;;;;;10.18;100.00;99584.56;5051716;28;20036;-78
2023/03/21 00:02:30;;;;;;;40.42;30.35;;;;;;;10.02;100.00;99556.72;5051870;28;20040;-78
2023/03/21 00:04:56;;;;;;;38.25;28.98;;;;;;;10.26;100.00;99602.47;5051687;28;20055;-78
2023/03/21 00:07:21;;;;;;;42.53;30.10;;;;;;;10.11;100.00;99569.31;5051416;28;20469;-78
2023/03/21 00:09:46;;;;;;;43.25;31.67;;;;;;;10.22;100.00;99595.69;5051861;28;20059;-78
2023/03/21 00:12:13;;;;;;;45.78;30.95;;;;;;;10.18;100.00;99592.38;5051627;28;20111;-78
2023/03/21 00:14:38;;;;;;;44.90;32.63;;;;;;;10.16;100.00;99580.38;5051782;28;20036;-78
2023/03/21 00:17:04;;;;;;;39.20;29.65;;;;;;;10.15;100.00;99583.88;5051493;28;20041;-78
2023/03/21 00:19:29;;;;;;;41.00;29.65;;;;;;;10.17;100.00;99589.84;5051811;28;20110;-78
2023/03/21 00:21:55;;;;;;;47.55;32.05;;;;;;;10.23;100.00;99587.78;5051544;28;20110;-78
2023/03/21 00:24:21;;;;;;;50.38;36.15;;;;;;;10.10;100.00;99565.03;5051309;28;20027;-78
2023/03/21 00:26:47;;;;;;;48.55;35.38;;;;;;;10.10;100.00;99573.66;5051676;28;20106;-78
2023/03/21 00:29:12;;;;;;;51.72;36.05;;;;;;;10.20;100.00;99593.16;5051396;28;20496;-78
2023/03/21 00:31:37;;;;;;;49.72;35.10;;;;;;;10.09;100.00;99569.38;5051572;28;20040;-78
2023/03/21 00:34:03;;;;;;;51.28;35.95;;;;;;;10.03;100.00;99564.47;5051203;28;20021;-78
2023/03/21 00:36:28;;;;;;;53.13;36.50;;;;;;;10.17;100.00;99585.50;5051332;28;20056;-78
2023/03/21 00:38:54;;;;;;;51.55;37.50;;;;;;;10.12;100.00;99578.81;5051372;28;20025;-78
2023/03/21 00:41:19;;;;;;;48.92;35.10;;;;;;;10.19;100.00;99588.84;5051035;28;20380;-78
2023/03/21 00:43:45;;;;;;;52.47;36.08;;;;;;;10.17;100.00;99579.44;5051447;28;20029;-78
2023/03/21 00:46:10;;;;;;;52.58;36.78;;;;;;;10.14;100.00;99570.00;5051152;28;20025;-78
2023/03/21 00:48:36;;;;;;;53.25;35.80;;;;;;;10.23;100.00;99584.34;5051358;28;20044;-78
2023/03/21 00:51:02;;;;;;;50.08;35.33;;;;;;;10.22;100.00;99585.28;5051195;28;20021;-78
2023/03/21 00:53:28;;;;;;;51.40;36.53;;;;;;;10.13;100.00;99576.13;5051249;28;20036;-78
2023/03/21 00:55:54;;;;;;;58.28;39.90;;;;;;;10.18;100.00;99581.13;5051384;28;20083;-78
2023/03/21 00:58:19;;;;;;;57.42;38.55;;;;;;;10.20;100.00;99589.72;5049832;28;20493;-78
2023/03/21 01:00:47;;;;;;;57.15;39.85;;;;;;;10.15;100.00;99579.50;5053631;28;20037;-78
2023/03/21 01:03:14;;;;;;;62.40;42.10;;;;;;;10.10;100.00;99562.41;5054841;28;20499;-78
2023/03/21 01:08:27;;;;;;;60.60;40.03;;;;;;;10.02;100.00;99561.91;5054944;28;20535;-78
2023/03/21 01:10:54;;;;;;;61.05;42.63;;;;;;;9.99;100.00;99552.50;5054988;28;20032;-78
2023/03/21 01:13:22;;;;;;;64.35;42.22;;;;;;;10.13;100.00;99577.91;5054673;28;20084;-78
2023/03/21 01:15:50;;;;;;;61.80;42.33;;;;;;;10.14;100.00;99571.78;5054736;28;20495;-78
2023/03/21 01:18:18;;;;;;;61.88;40.97;;;;;;;10.14;100.00;99572.59;5054658;28;20135;-78
2023/03/21 01:20:45;;;;;;;60.15;39.78;;;;;;;10.12;100.00;99569.25;5054818;28;20021;-78
2023/03/21 01:23:12;;;;;;;58.80;40.70;;;;;;;9.96;100.00;99545.69;5054468;28;20032;-78
2023/03/21 01:25:38;;;;;;;60.80;41.20;;;;;;;9.86;100.00;99533.16;5054609;28;20098;-78
2023/03/21 01:28:04;;;;;;;60.25;40.35;;;;;;;10.09;100.00;99571.16;5054587;28;20029;-78
2023/03/21 01:30:29;;;;;;;53.53;38.60;;;;;;;9.98;100.00;99546.44;5054328;28;20098;-78
2023/03/21 01:32:55;;;;;;;62.08;41.15;;;;;;;10.11;100.00;99564.09;5054801;28;20029;-78
2023/03/21 01:35:20;;;;;;;59.40;39.13;;;;;;;10.08;100.00;99564.25;5054475;28;20021;-78
2023/03/21 01:37:47;;;;;;;57.83;39.30;;;;;;;10.04;100.00;99560.94;5054453;28;20107;-78
2023/03/21 01:40:24;;;;;;;58.67;39.45;;;;;;;9.91;100.00;99539.00;5054292;28;20067;-78
2023/03/21 01:42:50;;;;;;;54.88;37.60;;;;;;;9.92;100.00;99538.94;5054313;28;20036;-78
2023/03/21 01:45:53;;;;;;;57.53;39.90;;;;;;;9.98;100.00;99553.41;5053874;28;20108;-78
2023/03/21 01:48:20;;;;;;;57.72;40.28;;;;;;;9.98;100.00;99550.81;5054085;28;20025;-78
2023/03/21 01:50:46;;;;;;;60.25;41.45;;;;;;;9.87;100.00;99540.91;5054212;28;20032;-78
2023/03/21 01:53:13;;;;;;;61.80;40.58;;;;;;;9.74;100.00;99527.59;5053954;28;20029;-78
2023/03/21 01:55:40;;;;;;;61.47;39.63;;;;;;;9.72;100.00;99533.78;5054034;28;20443;-78
2023/03/21 01:58:08;;;;;;;61.75;39.85;;;;;;;9.73;100.00;99541.53;5053936;28;20431;-78
2023/03/21 02:00:35;;;;;;;59.53;39.65;;;;;;;9.85;100.00;99566.13;5053907;28;20381;-78
2023/03/21 02:03:07;;;;;;;67.45;40.05;;;;;;;9.75;100.00;99557.06;5054039;28;20025;-78
2023/03/21 02:05:43;;;;;;;60.53;40.03;;;;;;;9.85;100.00;99567.88;5053712;28;20029;-78
2023/03/21 02:08:08;;;;;;;60.95;41.10;;;;;;;9.82;100.00;99566.28;5053687;28;20028;-78
2023/03/21 02:10:35;;;;;;;65.72;42.40;;;;;;;9.85;100.00;99573.09;5053655;28;20025;-78
2023/03/21 02:13:06;;;;;;;65.95;43.85;;;;;;;9.83;100.00;99569.72;5053903;28;20025;-78
2023/03/21 02:15:33;;;;;;;71.05;44.72;;;;;;;9.86;100.00;99569.56;5053568;28;20110;-78
2023/03/21 02:18:23;;;;;;;61.67;40.65;;;;;;;9.82;100.00;99565.41;5053813;28;20057;-78
2023/03/21 02:21:01;;;;;;;65.30;42.10;;;;;;;9.87;100.00;99576.47;5054126;28;20368;-78
2023/03/21 02:23:40;;;;;;;65.05;39.08;;;;;;;9.86;100.00;99575.66;5053284;28;20029;-78
2023/03/21 02:26:17;;;;;;;62.53;41.80;;;;;;;9.89;100.00;99572.88;5053557;28;20061;-78
2023/03/21 02:28:59;;;;;;;65.57;41.40;;;;;;;9.90;100.00;99574.59;5053471;28;20025;-78
2023/03/21 02:31:31;;;;;;;67.20;42.50;;;;;;;9.89;100.00;99572.88;5053446;28;20021;-78
2023/03/21 02:33:56;;;;;;;69.35;42.65;;;;;;;9.89;100.00;99575.47;5053547;28;20033;-78
2023/03/21 02:36:45;;;;;;;62.92;40.78;;;;;;;9.90;100.00;99571.13;5053177;28;20087;-78
2023/03/21 02:39:18;;;;;;;67.82;43.65;;;;;;;9.90;100.00;99573.72;5053127;28;20037;-78
2023/03/21 02:41:53;;;;;;;65.68;39.28;;;;;;;9.73;100.00;99551.94;5052148;28;20025;-78
2023/03/21 02:44:38;;;;;;;61.90;41.15;;;;;;;9.68;100.00;99534.81;5052900;28;20029;-78
2023/03/21 02:47:14;;;;;;;61.65;39.13;;;;;;;9.73;100.00;99538.94;5053200;28;20025;-78
2023/03/21 02:50:01;;;;;;;59.20;39.20;;;;;;;9.77;100.00;99544.81;5053048;28;20033;-78
2023/03/21 02:52:30;;;;;;;60.58;38.47;;;;;;;9.65;100.00;99530.63;5052671;28;20495;-78
2023/03/21 02:54:57;;;;;;;60.63;39.42;;;;;;;9.65;100.00;99541.03;5053064;28;20224;-78
2023/03/21 02:57:23;;;;;;;59.47;38.92;;;;;;;9.63;100.00;99537.63;5052767;28;20021;-78
2023/03/21 02:59:50;;;;;;;56.80;35.97;;;;;;;9.62;100.00;99542.91;5052973;28;20029;-78
2023/03/21 03:02:20;;;;;;;59.25;38.13;;;;;;;9.77;100.00;99562.19;5052550;28;20032;-78
2023/03/21 03:04:46;;;;;;;59.17;39.40;;;;;;;9.63;100.00;99545.44;5052647;28;20043;-78
2023/03/21 03:07:20;;;;;;;61.53;38.17;;;;;;;9.75;100.00;99578.72;5052824;28;20377;-78
2023/03/21 03:09:56;;;;;;;56.65;37.53;;;;;;;9.77;100.00;99564.78;5052676;28;20037;-78
2023/03/21 03:12:57;;;;;;;56.28;35.90;;;;;;;9.72;100.00;99573.63;5052483;28;20025;-78
2023/03/21 03:15:37;;;;;;;53.10;35.67;;;;;;;9.72;100.00;99575.41;5052583;28;20025;-78
2023/03/21 03:18:09;;;;;;;57.15;36.42;;;;;;;9.72;100.00;99576.22;5052341;28;20179;-78
2023/03/21 03:20:45;;;;;;;54.45;36.45;;;;;;;9.70;100.00;99575.47;5052304;28;20025;-78
2023/03/21 03:23:46;;;;;;;54.58;35.17;;;;;;;9.65;100.00;99576.56;5051819;28;20392;-78
2023/03/21 03:26:25;;;;;;;51.70;35.92;;;;;;;9.66;100.00;99580.88;5052447;28;20021;-78
2023/03/21 03:28:57;;;;;;;56.22;36.35;;;;;;;9.64;100.00;99567.09;5052491;28;20056;-78
2023/03/21 03:31:30;;;;;;;58.70;38.22;;;;;;;9.65;100.00;99579.16;5052331;28;20075;-78
2023/03/21 03:34:01;;;;;;;54.97;36.83;;;;;;;9.65;100.00;99573.97;5052180;28;20021;-78
2023/03/21 03:36:34;;;;;;;55.90;37.33;;;;;;;9.65;100.00;99577.44;5052108;28;20029;-78
2023/03/21 03:39:04;;;;;;;55.22;35.90;;;;;;;9.54;100.00;99566.66;5052199;28;20024;-78
2023/03/21 03:41:30;;;;;;;52.70;36.33;;;;;;;9.39;100.00;99538.72;5051880;28;20044;-78
2023/03/21 03:43:58;;;;;;;56.60;35.40;;;;;;;9.46;100.00;99540.16;5051998;28;20028;-78
2023/03/21 03:46:51;;;;;;;57.78;37.45;;;;;;;9.63;100.00;99578.41;5051915;28;20108;-78
2023/03/21 03:49:22;;;;;;;54.28;36.03;;;;;;;9.56;100.00;99569.19;5051650;28;20025;-78
2023/03/21 03:52:08;;;;;;;54.53;35.42;;;;;;;9.62;100.00;99581.91;5052029;28;20036;-78
2023/03/21 03:54:39;;;;;;;57.63;34.97;;;;;;;9.44;100.00;99558.41;5052003;28;20427;-78
2023/03/21 03:57:06;;;;;;;54.78;35.50;;;;;;;9.58;100.00;99589.00;5052144;28;20044;-78
2023/03/21 03:59:36;;;;;;;54.13;35.70;;;;;;;9.52;100.00;99573.66;5051802;28;20075;-78
2023/03/21 04:02:02;;;;;;;51.83;34.67;;;;;;;9.43;100.00;99555.88;5051964;28;20419;-78
2023/03/21 04:04:27;;;;;;;56.58;35.88;;;;;;;9.60;100.00;99588.94;5051482;28;20119;-78
2023/03/21 04:06:52;;;;;;;59.35;37.13;;;;;;;9.57;100.00;99587.31;5051692;28;20051;-78
2023/03/21 04:09:18;;;;;;;53.65;35.72;;;;;;;9.60;100.00;99594.13;5051697;28;20033;-78
2023/03/21 04:11:43;;;;;;;56.20;35.20;;;;;;;9.46;100.00;99556.59;5051818;28;20053;-78
2023/03/21 04:14:09;;;;;;;54.50;36.83;;;;;;;9.60;100.00;99589.78;5051752;28;20055;-78
2023/03/21 04:16:34;;;;;;;57.53;35.67;;;;;;;9.56;100.00;99574.38;5051484;28;20021;-78
2023/03/21 04:18:59;;;;;;;55.38;35.38;;;;;;;9.49;100.00;99571.22;5051528;28;20077;-78
2023/03/21 04:21:26;;;;;;;54.97;36.15;;;;;;;9.57;100.00;99597.72;5051331;28;20108;-78
2023/03/21 04:23:53;;;;;;;54.92;35.15;;;;;;;9.42;100.00;99568.03;5051989;28;20496;-78
2023/03/21 04:26:20;;;;;;;60.97;38.25;;;;;;;9.54;100.00;99594.41;5051464;28;20108;-78
2023/03/21 04:28:45;;;;;;;59.95;36.80;;;;;;;9.53;100.00;99592.72;5051639;28;20184;-78
2023/03/21 04:31:12;;;;;;;58.30;37.30;;;;;;;9.45;100.00;99593.06;5051622;28;20067;-78
2023/03/21 04:33:37;;;;;;;58.35;38.95;;;;;;;9.40;100.00;99575.06;5051231;28;20068;-78
2023/03/21 04:36:08;;;;;;;59.00;38.85;;;;;;;9.53;100.00;99597.94;5054357;28;20104;-78
2023/03/21 04:38:35;;;;;;;56.33;37.83;;;;;;;9.48;100.00;99598.09;5053056;28;20485;-78
2023/03/21 04:41:01;;;;;;;59.50;38.22;;;;;;;9.23;100.00;99554.97;5055576;28;20056;-78
2023/03/21 04:43:27;;;;;;;60.03;40.42;;;;;;;9.48;100.00;99606.78;5055286;28;20044;-78
2023/03/21 04:45:54;;;;;;;59.08;38.55;;;;;;;9.46;100.00;99598.19;5055275;28;20059;-78
2023/03/21 04:48:23;;;;;;;62.45;38.67;;;;;;;9.41;100.00;99581.94;5055221;28;20035;-78
2023/03/21 04:50:49;;;;;;;66.20;41.70;;;;;;;9.53;100.00;99605.72;5054156;28;20029;-78
2023/03/21 04:53:14;;;;;;;62.47;39.65;;;;;;;9.47;100.00;99599.84;5055810;28;20032;-78
2023/03/21 04:55:39;;;;;;;61.72;39.65;;;;;;;9.48;100.00;99609.38;5055220;28;20056;-78
2023/03/21 04:58:05;;;;;;;63.80;39.92;;;;;;;9.27;100.00;99578.22;5055292;28;20028;-78
2023/03/21 05:00:36;;;;;;;57.78;38.47;;;;;;;9.43;100.00;99603.50;5055017;28;20048;-78
2023/03/21 05:03:01;;;;;;;54.97;37.40;;;;;;;9.41;100.00;99601.88;5055175;28;20501;-78
2023/03/21 05:05:26;;;;;;;61.58;39.67;;;;;;;9.30;100.00;99585.91;5054786;28;20032;-78
2023/03/21 05:07:52;;;;;;;74.47;43.85;;;;;;;9.46;100.00;99615.53;5055538;28;20029;-78
2023/03/21 05:10:17;;;;;;;62.90;40.00;;;;;;;9.43;100.00;99606.09;5055283;28;20048;-78
2023/03/21 05:12:42;;;;;;;66.70;40.83;;;;;;;9.45;100.00;99616.44;5055258;28;20087;-78
2023/03/21 05:15:08;;;;;;;63.35;40.17;;;;;;;9.44;100.00;99609.56;5053710;28;20519;-78
2023/03/21 05:17:34;;;;;;;63.80;40.00;;;;;;;9.32;100.00;99590.13;5054648;28;20052;-78
2023/03/21 05:19:59;;;;;;;66.05;42.72;;;;;;;9.31;100.00;99591.03;5054730;28;20037;-78
2023/03/21 05:22:27;;;;;;;65.88;41.10;;;;;;;9.31;100.00;99592.78;5054749;28;20029;-78
2023/03/21 05:24:54;;;;;;;65.30;42.10;;;;;;;9.44;100.00;99610.41;5054566;28;20392;-78
2023/03/21 05:27:35;;;;;;;68.05;41.78;;;;;;;9.35;100.00;99600.38;5054822;28;20032;-78
2023/03/21 05:30:03;;;;;;;;;;;;;;;9.42;100.00;99626.97;5055211;28;20283;-78
2023/03/21 05:32:28;;;;;;;64.95;41.85;;;;;;;9.44;100.00;99623.41;5054356;28;19909;-78
2023/03/21 05:34:54;;;;;;;68.88;43.40;;;;;;;9.38;100.00;99609.81;5054563;28;20017;-78
2023/03/21 05:37:19;;;;;;;63.25;41.20;;;;;;;9.45;100.00;99621.66;5054543;28;20032;-78
2023/03/21 05:39:44;;;;;;;67.47;42.25;;;;;;;9.52;100.00;99622.22;5054436;28;20025;-78
2023/03/21 05:42:10;;;;;;;74.75;42.55;;;;;;;9.56;100.00;99629.81;5054583;28;20024;-78
2023/03/21 05:44:36;;;;;;;74.00;42.88;;;;;;;9.46;100.00;99598.19;5054065;28;20033;-78
2023/03/21 05:47:03;;;;;;;71.65;43.35;;;;;;;9.55;100.00;99614.28;5053890;28;20031;-78
2023/03/21 05:49:29;;;;;;;60.00;38.30;;;;;;;9.49;100.00;99616.25;5054471;28;20358;-78
2023/03/21 05:51:55;;;;;;;67.60;43.10;;;;;;;9.46;100.00;99602.53;5054412;28;20112;-78
2023/03/21 05:54:20;;;;;;;64.13;40.33;;;;;;;9.60;100.00;99623.56;5054239;28;20103;-78
2023/03/21 05:56:45;;;;;;;65.95;43.65;;;;;;;9.47;100.00;99612.00;5053986;28;20075;-78
2023/03/21 05:59:10;;;;;;;70.85;45.92;;;;;;;9.47;100.00;99601.63;5054220;28;20075;-78
2023/03/21 06:01:36;;;;;;;72.68;47.00;;;;;;;9.46;100.00;99602.53;5053794;28;20021;-78
2023/03/21 06:04:01;;;;;;;73.22;46.75;;;;;;;9.48;100.00;99608.50;5054244;28;20059;-78
2023/03/21 06:06:29;;;;;;;76.18;48.30;;;;;;;9.55;100.00;99601.28;5054095;28;20024;-78
2023/03/21 06:08:54;;;;;;;65.50;42.72;;;;;;;9.56;100.00;99613.38;5054116;28;20021;-78
2023/03/21 06:11:26;;;;;;;58.08;40.60;;;;;;;9.66;100.00;99622.50;5054286;28;20171;-78
2023/03/21 06:13:51;;;;;;;57.35;37.30;;;;;;;9.59;100.00;99606.28;5054172;28;20116;-78
2023/03/21 06:16:17;;;;;;;55.50;37.17;;;;;;;9.75;100.00;99632.50;5052751;28;20108;-78
2023/03/21 06:18:42;;;;;;;56.83;38.50;;;;;;;9.63;100.00;99609.59;5053445;28;20049;-78
2023/03/21 06:21:07;;;;;;;58.63;38.20;;;;;;;9.79;100.00;99633.19;5053873;28;20105;-78
2023/03/21 06:23:33;;;;;;;55.95;37.38;;;;;;;9.69;100.00;99618.00;5053527;28;20056;-78
2023/03/21 06:25:58;;;;;;;54.78;36.92;;;;;;;9.85;100.00;99632.91;5053716;28;20068;-78
2023/03/21 06:28:23;;;;;;;56.60;38.63;;;;;;;9.85;100.00;99632.91;5053630;28;20468;-78
2023/03/21 06:30:49;;;;;;;59.42;38.13;;;;;;;9.79;100.00;99612.41;5053626;28;20025;-78
2023/03/21 06:33:14;;;;;;;53.05;35.42;;;;;;;9.87;100.00;99625.91;5053639;28;20037;-78
2023/03/21 06:35:39;;;;;;;57.65;36.17;;;;;;;9.95;100.00;99642.88;5053307;28;20511;-78
2023/03/21 06:38:04;;;;;;;59.30;37.13;;;;;;;9.82;100.00;99617.44;5053521;28;20127;-78
2023/03/21 06:40:30;;;;;;;54.38;35.80;;;;;;;9.89;100.00;99632.72;5053238;28;20016;-78
2023/03/21 06:42:55;;;;;;;59.08;37.17;;;;;;;9.93;100.00;99636.03;5053291;28;20025;-78
2023/03/21 06:45:20;;;;;;;52.88;32.28;;;;;;;9.88;100.00;99646.63;5053081;28;20017;-78
2023/03/21 06:47:46;;;;;;;49.28;33.33;;;;;;;9.91;100.00;99645.69;5053153;28;20033;-78
2023/03/21 06:50:11;;;;;;;51.53;34.83;;;;;;;9.92;100.00;99649.97;5053250;28;20033;-78
2023/03/21 06:52:37;;;;;;;48.03;32.60;;;;;;;9.87;100.00;99642.34;5053043;28;20048;-78
2023/03/21 06:55:02;;;;;;;48.25;31.48;;;;;;;10.00;100.00;99658.28;5053151;28;20070;-78
2023/03/21 06:57:28;;;;;;;46.10;32.05;;;;;;;9.89;100.00;99637.06;5051940;28;20025;-78
2023/03/21 06:59:53;;;;;;;47.30;30.20;;;;;;;9.82;100.00;99639.13;5052959;28;20029;-78
2023/03/21 07:02:18;;;;;;;49.55;30.85;;;;;;;9.86;100.00;99648.47;5053149;28;20040;-78
2023/03/21 07:04:44;;;;;;;39.13;27.63;;;;;;;10.06;100.00;99676.19;5052823;28;20043;-78
2023/03/21 07:07:09;;;;;;;46.55;28.35;;;;;;;9.94;100.00;99654.19;5053055;28;20055;-78
2023/03/21 07:09:35;;;;;;;40.05;28.23;;;;;;;10.06;100.00;99677.97;5052728;28;20538;-78
2023/03/21 07:12:00;;;;;;;43.60;27.95;;;;;;;9.95;100.00;99655.03;5052743;28;20067;-78
2023/03/21 07:14:26;;;;;;;39.33;26.98;;;;;;;10.08;100.00;99679.59;5052602;28;20017;-78
2023/03/21 07:16:51;;;;;;;42.10;28.75;;;;;;;10.01;100.00;99662.56;5052460;28;20090;-78
2023/03/21 07:19:17;;;;;;;41.70;27.52;;;;;;;10.13;100.00;99682.84;5052901;28;20482;-78
2023/03/21 07:21:42;;;;;;;39.22;25.55;;;;;;;9.99;100.00;99656.59;5052485;28;20441;-78
2023/03/21 07:24:07;;;;;;;38.85;26.38;;;;;;;10.13;99.71;99682.00;5052527;28;20028;-78
2023/03/21 07:26:33;;;;;;;42.50;25.58;;;;;;;10.11;100.00;99676.00;5052246;28;20020;-79
2023/03/21 07:28:58;;;;;;;35.97;26.13;;;;;;;10.18;100.00;99680.03;5052420;28;20059;-78
2023/03/21 07:31:25;;;;;;;36.38;25.20;;;;;;;10.02;99.77;99661.63;5052717;28;20025;-78
2023/03/21 07:33:51;;;;;;;38.45;25.75;;;;;;;10.09;99.66;99670.03;5052319;28;20472;-79
2023/03/21 07:36:16;;;;;;;35.97;26.25;;;;;;;10.11;100.00;99661.25;5052764;28;20120;-79
2023/03/21 07:38:43;;;;;;;41.95;27.52;;;;;;;10.17;100.00;99665.34;5050980;28;20033;-80
2023/03/21 07:41:08;;;;;;;41.60;27.42;;;;;;;10.29;99.62;99683.03;5052418;28;20379;-78
2023/03/21 07:43:34;;;;;;;41.00;28.45;;;;;;;10.25;100.00;99665.88;5052064;28;20017;-78
2023/03/21 07:46:00;;;;;;;38.50;27.75;;;;;;;10.40;100.00;99685.16;5052286;28;20033;-78
2023/03/21 07:48:26;;;;;;;42.53;29.45;;;;;;;10.40;100.00;99679.94;5052230;28;20033;-79
2023/03/21 07:50:52;;;;;;;43.97;30.92;;;;;;;10.45;99.95;99680.59;5051965;28;20028;-78
2023/03/21 07:53:17;;;;;;;43.58;28.95;;;;;;;10.44;99.82;99682.31;5052191;28;20025;-79
2023/03/21 07:55:43;;;;;;;45.35;30.52;;;;;;;10.30;100.00;99666.50;5051853;28;20032;-79
2023/03/21 07:58:08;;;;;;;43.85;29.58;;;;;;;10.43;100.00;99691.06;5051938;28;20025;-79
2023/03/21 08:00:33;;;;;;;43.00;29.13;;;;;;;10.38;100.00;99684.38;5052005;28;20025;-79
2023/03/21 08:02:59;;;;;;;43.80;29.95;;;;;;;10.40;100.00;99691.19;5052136;28;20032;-79
2023/03/21 08:05:34;;;;;;;45.28;30.75;;;;;;;10.29;99.33;99677.84;5051856;28;20032;-79
2023/03/21 08:07:59;;;;;;;37.60;28.38;;;;;;;10.36;99.30;99687.03;5051805;28;20048;-79
2023/03/21 08:10:25;;;;;;;41.95;29.02;;;;;;;10.31;99.25;99673.38;5051665;28;20476;-79
2023/03/21 08:12:51;;;;;;;45.60;29.52;;;;;;;10.45;99.54;99691.84;5051796;28;20083;-79
2023/03/21 08:15:17;;;;;;;46.08;30.20;;;;;;;10.46;99.23;99687.50;5051949;28;20029;-79
2023/03/21 08:17:44;;;;;;;47.15;31.98;;;;;;;10.59;99.29;99696.41;5051567;28;20440;-79
2023/03/21 08:20:12;;;;;;;43.30;30.92;;;;;;;10.61;99.01;99696.34;5051844;28;20025;-79
2023/03/21 08:22:37;;;;;;;44.50;30.27;;;;;;;10.65;98.29;99705.72;5051500;28;20064;-79
2023/03/21 08:25:04;;;;;;;41.95;29.52;;;;;;;10.60;98.01;99694.66;5051493;28;20045;-79
2023/03/21 08:27:30;;;;;;;39.42;27.83;;;;;;;10.65;98.28;99705.72;5051483;28;20039;-79
2023/03/21 08:29:56;;;;;;;43.08;29.10;;;;;;;10.61;98.28;99705.00;5051483;28;20100;-79
2023/03/21 08:32:28;;;;;;;38.83;29.27;;;;;;;10.58;98.40;99712.97;5051938;28;20527;-79
2023/03/21 08:35:03;;;;;;;38.83;26.73;;;;;;;10.53;97.18;99711.47;5051509;28;20033;-79
2023/03/21 08:37:29;;;;;;;38.35;27.13;;;;;;;10.41;95.90;99702.47;5051624;28;20464;-79
2023/03/21 08:39:54;;;;;;;34.85;25.75;;;;;;;10.31;95.93;99689.00;5051261;28;20021;-79
2023/03/21 08:42:21;;;;;;;36.13;25.40;;;;;;;9.98;95.75;99634.06;5051754;28;20064;-79
2023/03/21 08:44:47;;;;;;;34.50;25.65;;;;;;;10.43;95.27;99711.06;5051416;28;20025;-79
2023/03/21 08:47:13;;;;;;;32.75;23.20;;;;;;;10.36;95.13;99689.63;5051476;28;20058;-79
2023/03/21 08:49:39;;;;;;;36.70;24.40;;;;;;;10.49;95.09;99710.75;5051330;28;20060;-79
2023/03/21 08:52:05;;;;;;;33.63;24.95;;;;;;;10.57;94.93;99713.03;5051529;28;20090;-79
2023/03/21 08:54:30;;;;;;;38.85;26.73;;;;;;;10.64;94.57;99717.03;5051495;28;20111;-79
2023/03/21 08:56:56;;;;;;;40.95;26.27;;;;;;;10.72;94.05;99715.78;5051238;28;20044;-79
2023/03/21 08:59:21;;;;;;;36.70;25.30;;;;;;;10.86;94.33;99728.16;5051606;28;20021;-79
2023/03/21 09:01:47;;;;;;;33.85;24.25;;;;;;;10.82;93.32;99707.53;5051246;28;20025;-79
2023/03/21 09:04:12;;;;;;;33.13;25.08;;;;;;;10.87;93.41;99698.59;5051455;28;20036;-79
2023/03/21 09:06:39;;;;;;;34.42;25.23;;;;;;;11.20;92.70;99722.19;5051154;28;20037;-79
2023/03/21 09:09:06;;;;;;;32.45;23.55;;;;;;;11.28;91.63;99706.19;5051127;28;20861;-80
2023/03/21 09:11:32;;;;;;;31.20;23.33;;;;;;;11.50;90.77;99705.97;5051355;28;20480;-79
2023/03/21 09:13:58;;;;;;;36.20;23.98;;;;;;;11.67;90.45;99706.00;5051212;28;20021;-80
2023/03/21 09:16:23;;;;;;;31.33;23.48;;;;;;;11.96;89.75;99722.81;5048075;28;20033;-79
2023/03/21 09:18:54;;;;;;;34.10;22.30;;;;;;;12.07;88.66;99724.88;5040627;28;20505;-79
2023/03/21 09:21:21;;;;;;;26.75;21.83;;;;;;;12.11;88.07;99702.91;5041748;28;20019;-80
2023/03/21 09:23:51;;;;;;;26.88;21.55;;;;;;;12.22;87.75;99697.13;5042219;28;20040;-80
2023/03/21 09:26:18;;;;;;;31.58;23.30;;;;;;;12.40;87.03;99709.22;5043738;28;20116;-79
2023/03/21 09:28:45;;;;;;;30.67;22.42;;;;;;;12.64;86.48;99719.25;5044226;28;20112;-79
2023/03/21 09:31:11;;;;;;;32.65;23.20;;;;;;;12.74;85.14;99723.06;5042598;28;20025;-79
2023/03/21 09:33:41;;;;;;;36.38;24.65;;;;;;;12.76;84.89;99713.38;5043387;28;20059;-79
2023/03/21 09:36:11;;;;;;;31.00;22.38;;;;;;;12.76;83.99;99718.59;5047629;28;20032;-79
2023/03/21 09:38:38;;;;;;;30.92;23.40;;;;;;;12.78;83.42;99714.16;5050015;28;20033;-79
2023/03/21 09:41:33;;;;;;;29.27;22.10;;;;;;;12.98;83.70;99716.50;5043649;28;20100;-79
2023/03/21 09:44:26;;;;;;;32.60;22.55;;;;;;;13.14;82.70;99726.94;5042574;28;20037;-79
2023/03/21 09:47:12;;;;;;;25.33;20.65;;;;;;;13.02;82.27;99711.97;5044069;28;20029;-79
2023/03/21 09:49:43;;;;;;;27.02;20.98;;;;;;;13.01;81.66;99710.25;5036042;28;20067;-80
2023/03/21 09:52:22;;;;;;;28.10;21.88;;;;;;;12.70;81.37;99706.72;5039230;28;20109;-80
2023/03/21 09:54:48;;;;;;;26.92;20.33;;;;;;;12.44;82.01;99702.91;5033993;28;20037;-80
2023/03/21 09:57:40;;;;;;;29.77;21.83;;;;;;;12.29;82.98;99731.59;5034230;28;20048;-80
2023/03/21 10:00:10;;;;;;;;;;;;;;;12.05;83.75;99724.13;5034343;28;20129;-80
2023/03/21 10:02:38;;;;;;;27.38;21.25;;;;;;;11.96;83.71;99732.41;5033679;28;20214;-80
2023/03/21 10:05:20;;;;;;;29.80;21.55;;;;;;;11.81;84.24;99727.94;5033927;28;20100;-80
2023/03/21 10:07:53;;;;;;;30.08;22.83;;;;;;;11.74;84.56;99722.19;5033836;28;20052;-80
2023/03/21 10:10:27;;;;;;;38.20;24.33;;;;;;;11.62;84.02;99723.63;5034132;28;20068;-80
2023/03/21 10:12:54;;;;;;;40.80;26.67;;;;;;;11.46;83.38;99707.03;5033825;28;20417;-80
2023/03/21 10:15:22;;;;;;;33.47;25.90;;;;;;;11.51;84.17;99722.50;5034089;28;20536;-80
2023/03/21 10:17:54;;;;;;;35.38;25.85;;;;;;;11.51;83.53;99727.72;5033295;28;20060;-80
2023/03/21 10:20:20;;;;;;;35.33;26.38;;;;;;;11.54;83.55;99728.38;5032962;28;20032;-80
2023/03/21 10:22:48;;;;;;;36.40;26.65;;;;;;;11.39;82.85;99696.09;5032598;28;20029;-79
2023/03/21 10:25:39;;;;;;;35.30;28.08;;;;;;;11.38;83.04;99706.59;5032740;28;20025;-80
2023/03/21 10:28:08;;;;;;;35.15;27.02;;;;;;;11.59;82.94;99726.41;5032439;28;20061;-79
2023/03/21 10:30:39;;;;;;;33.58;26.60;;;;;;;11.86;82.55;99718.97;5032776;28;20025;-80
2023/03/21 10:33:08;;;;;;;35.60;26.37;;;;;;;12.10;80.92;99721.28;5031487;28;20025;-79
2023/03/21 10:35:35;;;;;;;34.72;26.77;;;;;;;12.12;80.56;99675.03;5032730;28;20026;-79
2023/03/21 10:38:02;;;;;;;32.65;25.77;;;;;;;12.57;80.04;99720.53;5032361;28;20084;-79
2023/03/21 10:40:27;;;;;;;37.50;28.17;;;;;;;12.67;79.71;99704.25;5032459;28;20032;-79
2023/03/21 10:43:25;;;;;;;33.00;25.60;;;;;;;12.79;79.16;99723.66;5032219;28;20026;-80
2023/03/21 10:45:53;;;;;;;32.60;25.13;;;;;;;12.74;79.04;99723.91;5032340;28;20025;-79
2023/03/21 10:48:18;;;;;;;33.05;25.10;;;;;;;12.58;79.54;99698.69;5032407;28;20029;-79
2023/03/21 10:50:47;;;;;;;32.28;24.00;;;;;;;12.56;80.29;99708.41;5032454;28;20491;-79
2023/03/21 10:53:30;;;;;;;32.03;24.85;;;;;;;12.46;80.89;99714.09;5032283;28;20064;-80
2023/03/21 10:55:59;;;;;;;40.10;27.73;;;;;;;12.29;80.24;99701.09;5032117;28;20026;-80
2023/03/21 10:58:27;;;;;;;35.90;27.63;;;;;;;12.22;81.18;99700.59;5032372;28;20071;-80
2023/03/21 11:01:00;;;;;;;33.08;26.35;;;;;;;12.10;81.23;99690.78;5031909;28;20473;-79
2023/03/21 11:03:30;;;;;;;36.10;27.52;;;;;;;12.14;81.50;99725.41;5032117;28;20048;-80
2023/03/21 11:06:00;;;;;;;40.47;29.77;;;;;;;11.95;81.32;99704.63;5032096;28;20025;-80
2023/03/21 11:08:26;;;;;;;38.35;26.95;;;;;;;11.93;81.87;99720.38;5032485;28;20057;-80
2023/03/21 11:11:03;;;;;;;40.08;29.08;;;;;;;11.77;82.82;99700.31;5031903;28;20459;-80
2023/03/21 11:13:41;;;;;;;39.63;30.60;;;;;;;11.81;83.43;99720.97;5032113;28;20113;-79
2023/03/21 11:16:21;;;;;;;47.40;33.92;;;;;;;11.09;85.33;99716.66;5031920;28;20083;-80
2023/03/21 11:18:50;;;;;;;50.97;35.67;;;;;;;10.37;87.61;99703.53;4994757;28;1095381;-80
2023/03/21 11:21:16;;;;;;;46.17;35.08;;;;;;;10.30;90.01;99700.34;5031650;28;20452;-80
2023/03/21 11:23:47;;;;;;;46.53;35.38;;;;;;;10.23;90.29;99712.75;5032398;28;20366;-80
2023/03/21 11:26:23;;;;;;;48.13;35.83;;;;;;;10.10;91.05;99698.56;5032581;28;20033;-80